sensor_id;sensor_type;location;lat;lon;timestamp;pressure;altitude;pressure_sealevel;temperature;humidity
59367;BME280;45163;47.690;11.770;2022-10-31T00:02:24;93795.59;;;9.10;100.00
59367;BME280;45163;47.690;11.770;2022-10-31T00:04:50;93801.41;;;8.85;100.00
59367;BME280;45163;47.690;11.770;2022-10-31T00:07:16;93792.56;;;8.77;100.00
59367;BME280;45163;47.690;11.770;2022-10-31T00:09:42;93798.19;;;8.93;100.00
59367;BME280;45163;47.690;11.770;2022-10-31T00:12:08;93801.94;;;9.03;100.00
59367;BME280;45163;47.690;11.770;2022-10-31T00:14:34;93791.44;;;9.02;100.00
59367;BME280;45163;47.690;11.770;2022-10-31T00:17:00;93802.03;;;8.96;100.00
59367;BME280;45163;47.690;11.770;2022-10-31T00:19:26;93795.47;;;8.93;100.00
59367;BME280;45163;47.690;11.770;2022-10-31T00:21:52;93798.22;;;8.90;100.00
59367;BME280;45163;47.690;11.770;2022-10-31T00:24:18;93797.13;;;8.87;100.00
59367;BME280;45163;47.690;11.770;2022-10-31T00:26:44;93799.94;;;8.80;100.00
59367;BME280;45163;47.690;11.770;2022-10-31T00:29:10;93789.22;;;8.69;100.00
59367;BME280;45163;47.690;11.770;2022-10-31T00:31:36;93803.75;;;8.56;100.00
59367;BME280;45163;47.690;11.770;2022-10-31T00:34:02;93803.97;;;8.41;100.00
59367;BME280;45163;47.690;11.770;2022-10-31T00:36:28;93797.53;;;8.24;100.00
59367;BME280;45163;47.690;11.770;2022-10-31T00:38:54;93806.22;;;8.12;100.00
59367;BME280;45163;47.690;11.770;2022-10-31T00:41:20;93799.69;;;8.06;100.00
59367;BME280;45163;47.690;11.770;2022-10-31T00:43:46;93812.47;;;8.09;100.00
59367;BME280;45163;47.690;11.770;2022-10-31T00:46:13;93812.16;;;8.04;100.00
59367;BME280;45163;47.690;11.770;2022-10-31T00:48:39;93814.78;;;8.11;100.00
59367;BME280;45163;47.690;11.770;2022-10-31T00:51:05;93809.28;;;8.14;100.00
59367;BME280;45163;47.690;11.770;2022-10-31T00:53:31;93810.50;;;8.10;100.00
59367;BME280;45163;47.690;11.770;2022-10-31T00:55:57;93817.22;;;8.02;100.00
59367;BME280;45163;47.690;11.770;2022-10-31T00:58:23;93823.03;;;8.04;100.00
59367;BME280;45163;47.690;11.770;2022-10-31T01:00:49;93818.63;;;8.13;100.00
59367;BME280;45163;47.690;11.770;2022-10-31T01:03:26;93813.16;;;8.17;100.00
59367;BME280;45163;47.690;11.770;2022-10-31T01:06:02;93807.03;;;8.09;100.00
59367;BME280;45163;47.690;11.770;2022-10-31T01:08:28;93810.25;;;8.01;100.00
59367;BME280;45163;47.690;11.770;2022-10-31T01:11:24;93810.25;;;8.01;100.00
59367;BME280;45163;47.690;11.770;2022-10-31T01:13:53;93806.34;;;8.02;100.00
59367;BME280;45163;47.690;11.770;2022-10-31T01:16:21;93807.47;;;8.04;100.00
59367;BME280;45163;47.690;11.770;2022-10-31T01:18:47;93800.09;;;8.05;100.00
59367;BME280;45163;47.690;11.770;2022-10-31T01:21:16;93802.84;;;8.01;100.00
59367;BME280;45163;47.690;11.770;2022-10-31T01:23:42;93803.25;;;7.99;100.00
59367;BME280;45163;47.690;11.770;2022-10-31T01:26:09;93806.78;;;7.96;100.00
59367;BME280;45163;47.690;11.770;2022-10-31T01:28:38;93806.44;;;7.94;100.00
59367;BME280;45163;47.690;11.770;2022-10-31T01:31:07;93795.19;;;7.92;100.00
59367;BME280;45163;47.690;11.770;2022-10-31T01:33:34;93799.16;;;7.84;100.00
59367;BME280;45163;47.690;11.770;2022-10-31T01:36:00;93805.00;;;7.83;100.00
59367;BME280;45163;47.690;11.770;2022-10-31T01:38:27;93796.88;;;7.79;100.00
59367;BME280;45163;47.690;11.770;2022-10-31T01:40:53;93803.41;;;7.85;100.00
59367;BME280;45163;47.690;11.770;2022-10-31T01:43:19;93801.44;;;7.86;100.00
59367;BME280;45163;47.690;11.770;2022-10-31T01:45:51;93803.38;;;7.89;100.00
59367;BME280;45163;47.690;11.770;2022-10-31T01:48:20;93802.59;;;7.88;100.00
59367;BME280;45163;47.690;11.770;2022-10-31T01:50:50;93798.03;;;7.82;100.00
59367;BME280;45163;47.690;11.770;2022-10-31T01:53:17;93803.13;;;7.76;100.00
59367;BME280;45163;47.690;11.770;2022-10-31T01:55:44;93798.47;;;7.73;100.00
59367;BME280;45163;47.690;11.770;2022-10-31T01:58:19;93795.75;;;7.73;100.00
59367;BME280;45163;47.690;11.770;2022-10-31T02:00:50;93795.00;;;7.72;100.00
59367;BME280;45163;47.690;11.770;2022-10-31T02:03:18;93795.75;;;7.73;100.00
59367;BME280;45163;47.690;11.770;2022-10-31T02:05:46;93796.16;;;7.75;100.00
59367;BME280;45163;47.690;11.770;2022-10-31T02:08:32;93791.50;;;7.72;100.00
59367;BME280;45163;47.690;11.770;2022-10-31T02:11:00;93787.72;;;7.66;100.00
59367;BME280;45163;47.690;11.770;2022-10-31T02:13:28;93790.03;;;7.64;100.00
59367;BME280;45163;47.690;11.770;2022-10-31T02:15:57;93785.00;;;7.66;100.00
59367;BME280;45163;47.690;11.770;2022-10-31T02:18:26;93793.09;;;7.69;100.00
59367;BME280;45163;47.690;11.770;2022-10-31T02:24:07;93792.78;;;7.60;100.00
59367;BME280;45163;47.690;11.770;2022-10-31T02:34:51;93780.78;;;7.61;100.00
59367;BME280;45163;47.690;11.770;2022-10-31T02:40:15;93786.69;;;7.53;100.00
59367;BME280;45163;47.690;11.770;2022-10-31T02:43:12;93784.47;;;7.40;100.00
59367;BME280;45163;47.690;11.770;2022-10-31T02:45:46;93780.19;;;7.39;100.00
59367;BME280;45163;47.690;11.770;2022-10-31T02:48:19;93786.31;;;7.47;100.00
59367;BME280;45163;47.690;11.770;2022-10-31T02:50:55;93790.56;;;7.48;100.00
59367;BME280;45163;47.690;11.770;2022-10-31T02:53:22;93792.13;;;7.49;100.00
59367;BME280;45163;47.690;11.770;2022-10-31T02:55:54;93789.41;;;7.53;100.00
59367;BME280;45163;47.690;11.770;2022-10-31T02:58:24;93781.97;;;7.57;100.00
59367;BME280;45163;47.690;11.770;2022-10-31T03:06:35;93780.94;;;7.81;100.00
59367;BME280;45163;47.690;11.770;2022-10-31T03:11:49;93777.91;;;7.76;100.00
59367;BME280;45163;47.690;11.770;2022-10-31T03:14:26;93774.84;;;7.70;100.00
59367;BME280;45163;47.690;11.770;2022-10-31T03:16:56;93777.63;;;7.63;100.00
59367;BME280;45163;47.690;11.770;2022-10-31T03:19:45;93784.16;;;7.69;100.00
59367;BME280;45163;47.690;11.770;2022-10-31T03:22:20;93781.75;;;8.12;100.00
59367;BME280;45163;47.690;11.770;2022-10-31T03:24:47;93778.50;;;8.24;100.00
59367;BME280;45163;47.690;11.770;2022-10-31T03:27:18;93785.56;;;7.84;100.00
59367;BME280;45163;47.690;11.770;2022-10-31T03:29:47;93777.13;;;7.75;100.00
59367;BME280;45163;47.690;11.770;2022-10-31T03:32:37;93790.38;;;7.69;100.00
59367;BME280;45163;47.690;11.770;2022-10-31T03:35:05;93793.13;;;7.66;100.00
59367;BME280;45163;47.690;11.770;2022-10-31T03:37:34;93790.03;;;7.64;100.00
59367;BME280;45163;47.690;11.770;2022-10-31T03:40:02;93785.78;;;7.63;100.00
59367;BME280;45163;47.690;11.770;2022-10-31T03:42:33;93793.63;;;7.57;100.00
59367;BME280;45163;47.690;11.770;2022-10-31T03:45:06;93796.41;;;7.46;100.00
59367;BME280;45163;47.690;11.770;2022-10-31T03:47:33;93797.28;;;7.40;100.00
59367;BME280;45163;47.690;11.770;2022-10-31T03:50:01;93799.63;;;7.34;100.00
59367;BME280;45163;47.690;11.770;2022-10-31T03:52:39;93798.59;;;7.21;100.00
59367;BME280;45163;47.690;11.770;2022-10-31T03:55:15;93799.41;;;7.14;100.00
59367;BME280;45163;47.690;11.770;2022-10-31T04:00:13;93800.25;;;7.08;100.00
59367;BME280;45163;47.690;11.770;2022-10-31T04:02:48;93804.50;;;7.09;100.00
59367;BME280;45163;47.690;11.770;2022-10-31T04:05:17;93800.63;;;7.06;100.00
59367;BME280;45163;47.690;11.770;2022-10-31T04:07:47;93793.94;;;7.18;100.00
59367;BME280;45163;47.690;11.770;2022-10-31T04:10:16;93794.72;;;7.18;100.00
59367;BME280;45163;47.690;11.770;2022-10-31T04:12:49;93797.50;;;7.11;100.00
59367;BME280;45163;47.690;11.770;2022-10-31T04:15:19;93792.50;;;7.06;100.00
59367;BME280;45163;47.690;11.770;2022-10-31T04:17:47;93799.19;;;6.94;100.00
59367;BME280;45163;47.690;11.770;2022-10-31T04:20:16;93792.63;;;6.88;100.00
59367;BME280;45163;47.690;11.770;2022-10-31T04:22:43;93793.38;;;6.92;100.00
59367;BME280;45163;47.690;11.770;2022-10-31T04:25:09;93791.44;;;6.93;100.00
59367;BME280;45163;47.690;11.770;2022-10-31T04:27:35;93794.91;;;6.93;100.00
59367;BME280;45163;47.690;11.770;2022-10-31T04:30:01;93790.66;;;6.92;100.00
59367;BME280;45163;47.690;11.770;2022-10-31T04:32:26;93796.88;;;6.89;100.00
59367;BME280;45163;47.690;11.770;2022-10-31T04:34:52;93793.03;;;6.87;100.00
59367;BME280;45163;47.690;11.770;2022-10-31T04:37:18;93798.91;;;6.82;100.00
59367;BME280;45163;47.690;11.770;2022-10-31T04:39:44;93802.00;;;6.77;100.00
59367;BME280;45163;47.690;11.770;2022-10-31T04:42:10;93802.41;;;6.75;100.00
59367;BME280;45163;47.690;11.770;2022-10-31T04:44:36;93800.47;;;6.76;100.00
59367;BME280;45163;47.690;11.770;2022-10-31T04:47:02;93797.75;;;6.76;100.00
59367;BME280;45163;47.690;11.770;2022-10-31T04:49:28;93799.69;;;6.75;100.00
59367;BME280;45163;47.690;11.770;2022-10-31T04:51:54;93795.78;;;6.80;100.00
59367;BME280;45163;47.690;11.770;2022-10-31T04:54:20;93789.13;;;6.91;100.00
59367;BME280;45163;47.690;11.770;2022-10-31T04:56:46;93786.41;;;6.95;100.00
59367;BME280;45163;47.690;11.770;2022-10-31T04:59:12;93786.09;;;6.82;100.00
59367;BME280;45163;47.690;11.770;2022-10-31T05:01:38;93797.03;;;6.68;100.00
59367;BME280;45163;47.690;11.770;2022-10-31T05:04:03;93792.44;;;6.61;100.00
59367;BME280;45163;47.690;11.770;2022-10-31T05:06:29;93792.44;;;6.61;100.00
59367;BME280;45163;47.690;11.770;2022-10-31T05:08:55;93794.03;;;6.52;100.00
59367;BME280;45163;47.690;11.770;2022-10-31T05:11:21;93795.59;;;6.49;100.00
59367;BME280;45163;47.690;11.770;2022-10-31T05:13:47;93791.31;;;6.52;100.00
59367;BME280;45163;47.690;11.770;2022-10-31T05:16:13;93795.19;;;6.54;100.00
59367;BME280;45163;47.690;11.770;2022-10-31T05:18:39;93792.03;;;6.59;100.00
59367;BME280;45163;47.690;11.770;2022-10-31T05:21:05;93790.81;;;6.71;100.00
59367;BME280;45163;47.690;11.770;2022-10-31T05:23:31;93786.25;;;7.13;100.00
59367;BME280;45163;47.690;11.770;2022-10-31T05:25:57;93784.81;;;7.42;100.00
59367;BME280;45163;47.690;11.770;2022-10-31T05:28:23;93773.75;;;7.64;100.00
59367;BME280;45163;47.690;11.770;2022-10-31T05:30:49;93773.00;;;7.60;100.00
59367;BME280;45163;47.690;11.770;2022-10-31T05:33:15;93766.56;;;7.43;100.00
59367;BME280;45163;47.690;11.770;2022-10-31T05:35:41;93765.63;;;7.19;100.00
59367;BME280;45163;47.690;11.770;2022-10-31T05:38:07;93771.94;;;7.09;100.00
59367;BME280;45163;47.690;11.770;2022-10-31T05:40:33;93775.84;;;7.04;100.00
59367;BME280;45163;47.690;11.770;2022-10-31T05:42:59;93770.09;;;6.98;100.00
59367;BME280;45163;47.690;11.770;2022-10-31T05:45:25;93768.97;;;6.92;100.00
59367;BME280;45163;47.690;11.770;2022-10-31T05:47:56;93768.22;;;6.88;100.00
59367;BME280;45163;47.690;11.770;2022-10-31T05:50:23;93775.28;;;6.75;100.00
59367;BME280;45163;47.690;11.770;2022-10-31T05:52:59;93766.84;;;6.62;100.00
59367;BME280;45163;47.690;11.770;2022-10-31T05:55:26;93770.41;;;6.52;100.00
59367;BME280;45163;47.690;11.770;2022-10-31T05:57:53;93776.25;;;6.43;100.00
59367;BME280;45163;47.690;11.770;2022-10-31T06:00:20;93773.53;;;6.43;100.00
59367;BME280;45163;47.690;11.770;2022-10-31T06:02:46;93773.53;;;6.43;100.00
59367;BME280;45163;47.690;11.770;2022-10-31T06:05:13;93780.91;;;6.39;100.00
59367;BME280;45163;47.690;11.770;2022-10-31T06:07:39;93775.53;;;6.36;100.00
59367;BME280;45163;47.690;11.770;2022-10-31T06:10:06;93776.22;;;6.51;100.00
59367;BME280;45163;47.690;11.770;2022-10-31T06:12:33;93779.72;;;6.47;100.00
59367;BME280;45163;47.690;11.770;2022-10-31T06:15:05;93779.69;;;6.55;100.00
59367;BME280;45163;47.690;11.770;2022-10-31T06:17:32;93779.19;;;6.70;100.00
59367;BME280;45163;47.690;11.770;2022-10-31T06:19:58;93786.94;;;6.68;100.00
59367;BME280;45163;47.690;11.770;2022-10-31T06:22:24;93783.44;;;6.75;100.00
59367;BME280;45163;47.690;11.770;2022-10-31T06:24:50;93776.47;;;6.74;100.00
59367;BME280;45163;47.690;11.770;2022-10-31T06:27:16;93767.94;;;6.72;100.00
59367;BME280;45163;47.690;11.770;2022-10-31T06:29:42;93769.13;;;6.71;100.00
59367;BME280;45163;47.690;11.770;2022-10-31T06:32:10;93776.53;;;6.63;100.00
59367;BME280;45163;47.690;11.770;2022-10-31T06:34:36;93779.25;;;6.63;100.00
59367;BME280;45163;47.690;11.770;2022-10-31T06:37:02;93779.63;;;6.65;100.00
59367;BME280;45163;47.690;11.770;2022-10-31T06:39:28;93779.22;;;6.67;100.00
59367;BME280;45163;47.690;11.770;2022-10-31T06:41:54;93776.50;;;6.67;100.00
59367;BME280;45163;47.690;11.770;2022-10-31T06:44:20;93773.03;;;6.66;100.00
59367;BME280;45163;47.690;11.770;2022-10-31T06:46:47;93770.63;;;6.76;100.00
59367;BME280;45163;47.690;11.770;2022-10-31T06:49:14;93767.84;;;6.90;100.00
59367;BME280;45163;47.690;11.770;2022-10-31T06:51:40;93767.19;;;7.20;100.00
59367;BME280;45163;47.690;11.770;2022-10-31T06:54:06;93765.59;;;7.64;100.00
59367;BME280;45163;47.690;11.770;2022-10-31T06:56:32;93757.97;;;8.20;100.00
59367;BME280;45163;47.690;11.770;2022-10-31T06:58:58;93754.78;;;8.56;100.00
59367;BME280;45163;47.690;11.770;2022-10-31T07:01:24;93751.97;;;8.63;100.00
59367;BME280;45163;47.690;11.770;2022-10-31T07:03:49;93758.09;;;8.70;100.00
59367;BME280;45163;47.690;11.770;2022-10-31T07:06:15;93755.56;;;8.83;100.00
59367;BME280;45163;47.690;11.770;2022-10-31T07:08:41;93752.22;;;8.99;100.00
59367;BME280;45163;47.690;11.770;2022-10-31T07:11:07;93751.63;;;9.11;100.00
59367;BME280;45163;47.690;11.770;2022-10-31T07:13:33;93743.59;;;9.47;100.00
59367;BME280;45163;47.690;11.770;2022-10-31T07:16:01;93748.13;;;9.78;100.00
59367;BME280;45163;47.690;11.770;2022-10-31T07:18:28;93740.94;;;9.87;100.00
59367;BME280;45163;47.690;11.770;2022-10-31T07:20:54;93744.38;;;9.91;100.00
59367;BME280;45163;47.690;11.770;2022-10-31T07:23:20;93740.88;;;9.91;100.00
59367;BME280;45163;47.690;11.770;2022-10-31T07:25:46;93744.31;;;9.95;100.00
59367;BME280;45163;47.690;11.770;2022-10-31T07:28:12;93732.19;;;9.96;100.00
59367;BME280;45163;47.690;11.770;2022-10-31T07:30:39;93742.69;;;9.97;100.00
59367;BME280;45163;47.690;11.770;2022-10-31T07:33:05;93741.06;;;10.00;100.00
59367;BME280;45163;47.690;11.770;2022-10-31T07:35:32;93732.34;;;10.09;100.00
59367;BME280;45163;47.690;11.770;2022-10-31T07:38:06;93731.22;;;10.26;100.00
59367;BME280;45163;47.690;11.770;2022-10-31T07:40:33;93729.38;;;10.39;100.00
59367;BME280;45163;47.690;11.770;2022-10-31T07:42:59;93729.22;;;10.46;100.00
59367;BME280;45163;47.690;11.770;2022-10-31T07:45:25;93730.47;;;10.78;100.00
59367;BME280;45163;47.690;11.770;2022-10-31T07:47:52;93731.75;;;10.90;100.00
59367;BME280;45163;47.690;11.770;2022-10-31T07:50:21;93723.25;;;11.04;100.00
59367;BME280;45163;47.690;11.770;2022-10-31T07:52:47;93726.06;;;11.17;100.00
59367;BME280;45163;47.690;11.770;2022-10-31T07:55:14;93716.03;;;11.27;100.00
59367;BME280;45163;47.690;11.770;2022-10-31T07:57:40;93717.25;;;11.26;100.00
59367;BME280;45163;47.690;11.770;2022-10-31T08:00:08;93710.06;;;11.32;100.00
59367;BME280;45163;47.690;11.770;2022-10-31T08:02:35;93710.31;;;11.37;100.00
59367;BME280;45163;47.690;11.770;2022-10-31T08:05:01;93704.66;;;11.44;100.00
59367;BME280;45163;47.690;11.770;2022-10-31T08:07:28;93702.75;;;11.58;100.00
59367;BME280;45163;47.690;11.770;2022-10-31T08:09:55;93702.38;;;11.72;100.00
59367;BME280;45163;47.690;11.770;2022-10-31T08:12:21;93698.34;;;11.77;100.00
59367;BME280;45163;47.690;11.770;2022-10-31T08:14:47;93703.22;;;11.85;100.00
59367;BME280;45163;47.690;11.770;2022-10-31T08:17:13;93696.72;;;12.08;100.00
59367;BME280;45163;47.690;11.770;2022-10-31T08:19:39;93694.03;;;12.34;100.00
59367;BME280;45163;47.690;11.770;2022-10-31T08:22:05;93691.88;;;12.67;100.00
59367;BME280;45163;47.690;11.770;2022-10-31T08:24:31;93694.69;;;13.02;100.00
59367;BME280;45163;47.690;11.770;2022-10-31T08:26:57;93683.34;;;13.38;100.00
59367;BME280;45163;47.690;11.770;2022-10-31T08:29:23;93687.25;;;13.50;100.00
59367;BME280;45163;47.690;11.770;2022-10-31T08:31:49;93681.56;;;13.44;100.00
59367;BME280;45163;47.690;11.770;2022-10-31T08:34:15;93680.56;;;13.51;100.00
59367;BME280;45163;47.690;11.770;2022-10-31T08:36:41;93677.63;;;13.80;100.00
59367;BME280;45163;47.690;11.770;2022-10-31T08:39:08;93678.50;;;13.99;100.00
59367;BME280;45163;47.690;11.770;2022-10-31T08:41:34;93670.69;;;14.19;100.00
59367;BME280;45163;47.690;11.770;2022-10-31T08:44:01;93677.31;;;14.53;98.34
59367;BME280;45163;47.690;11.770;2022-10-31T08:46:27;93672.44;;;14.57;96.42
59367;BME280;45163;47.690;11.770;2022-10-31T08:48:53;93663.84;;;14.77;95.39
59367;BME280;45163;47.690;11.770;2022-10-31T08:51:19;93657.91;;;14.87;92.50
59367;BME280;45163;47.690;11.770;2022-10-31T08:53:44;93653.84;;;15.01;93.47
59367;BME280;45163;47.690;11.770;2022-10-31T08:56:10;93661.50;;;15.15;94.74
59367;BME280;45163;47.690;11.770;2022-10-31T08:58:36;93649.16;;;15.48;93.08
59367;BME280;45163;47.690;11.770;2022-10-31T09:01:02;93651.91;;;16.12;90.97
59367;BME280;45163;47.690;11.770;2022-10-31T09:03:29;93645.56;;;16.90;89.00
59367;BME280;45163;47.690;11.770;2022-10-31T09:06:01;93642.81;;;17.86;79.57
59367;BME280;45163;47.690;11.770;2022-10-31T09:08:30;93641.03;;;18.72;74.19
59367;BME280;45163;47.690;11.770;2022-10-31T09:10:57;93631.38;;;19.17;68.41
59367;BME280;45163;47.690;11.770;2022-10-31T09:13:23;93633.47;;;19.23;64.65
59367;BME280;45163;47.690;11.770;2022-10-31T09:15:50;93627.59;;;19.97;63.52
59367;BME280;45163;47.690;11.770;2022-10-31T09:18:18;93631.31;;;20.40;62.84
59367;BME280;45163;47.690;11.770;2022-10-31T09:20:46;93625.59;;;21.12;62.17
59367;BME280;45163;47.690;11.770;2022-10-31T09:23:17;93617.28;;;22.77;59.00
59367;BME280;45163;47.690;11.770;2022-10-31T09:25:46;93618.28;;;24.05;49.91
59367;BME280;45163;47.690;11.770;2022-10-31T09:28:15;93615.03;;;24.36;43.79
59367;BME280;45163;47.690;11.770;2022-10-31T09:30:42;93606.72;;;25.02;42.38
59367;BME280;45163;47.690;11.770;2022-10-31T09:33:12;93611.25;;;25.60;38.59
59367;BME280;45163;47.690;11.770;2022-10-31T09:35:39;93607.69;;;26.41;39.83
59367;BME280;45163;47.690;11.770;2022-10-31T09:38:08;93605.88;;;26.43;36.71
59367;BME280;45163;47.690;11.770;2022-10-31T09:40:35;93606.31;;;26.66;36.76
59367;BME280;45163;47.690;11.770;2022-10-31T09:48:31;93602.72;;;26.52;37.58
59367;BME280;45163;47.690;11.770;2022-10-31T09:51:08;93602.78;;;25.90;38.14
59367;BME280;45163;47.690;11.770;2022-10-31T09:53:42;93599.06;;;24.43;37.81
59367;BME280;45163;47.690;11.770;2022-10-31T09:56:20;93599.94;;;24.62;39.47
59367;BME280;45163;47.690;11.770;2022-10-31T09:58:59;93595.69;;;24.85;40.32
59367;BME280;45163;47.690;11.770;2022-10-31T10:04:30;93585.25;;;25.16;39.26
59367;BME280;45163;47.690;11.770;2022-10-31T10:06:58;93586.25;;;25.68;37.43
59367;BME280;45163;47.690;11.770;2022-10-31T10:09:28;93585.50;;;25.67;37.99
59367;BME280;45163;47.690;11.770;2022-10-31T10:12:08;93583.91;;;25.96;36.72
59367;BME280;45163;47.690;11.770;2022-10-31T10:14:53;93589.50;;;26.98;35.42
59367;BME280;45163;47.690;11.770;2022-10-31T10:28:01;93583.47;;;23.70;37.52
59367;BME280;45163;47.690;11.770;2022-10-31T10:36:46;93576.97;;;21.88;41.80
59367;BME280;45163;47.690;11.770;2022-10-31T10:39:35;93575.16;;;21.20;43.39
59367;BME280;45163;47.690;11.770;2022-10-31T10:42:09;93567.00;;;21.05;44.76
59367;BME280;45163;47.690;11.770;2022-10-31T10:44:55;93558.66;;;20.62;46.12
59367;BME280;45163;47.690;11.770;2022-10-31T10:47:47;93567.56;;;20.40;46.57
59367;BME280;45163;47.690;11.770;2022-10-31T10:50:24;93564.72;;;20.34;48.64
59367;BME280;45163;47.690;11.770;2022-10-31T10:55:51;93553.56;;;20.23;50.07
59367;BME280;45163;47.690;11.770;2022-10-31T10:58:20;93549.91;;;20.11;50.45
59367;BME280;45163;47.690;11.770;2022-10-31T11:00:47;93554.78;;;20.22;51.12
59367;BME280;45163;47.690;11.770;2022-10-31T11:03:14;93550.47;;;20.15;49.54
59367;BME280;45163;47.690;11.770;2022-10-31T11:05:50;93548.38;;;20.36;52.45
59367;BME280;45163;47.690;11.770;2022-10-31T11:08:33;93548.13;;;20.08;51.21
59367;BME280;45163;47.690;11.770;2022-10-31T11:13:27;93537.69;;;19.98;51.06
59367;BME280;45163;47.690;11.770;2022-10-31T11:16:01;93538.28;;;20.07;51.90
59367;BME280;45163;47.690;11.770;2022-10-31T11:18:39;93526.84;;;19.94;50.93
59367;BME280;45163;47.690;11.770;2022-10-31T11:21:21;93531.38;;;19.97;50.92
59367;BME280;45163;47.690;11.770;2022-10-31T11:23:47;93523.13;;;20.03;52.73
59367;BME280;45163;47.690;11.770;2022-10-31T11:26:20;93531.97;;;19.81;48.75
59367;BME280;45163;47.690;11.770;2022-10-31T11:28:56;93531.06;;;19.89;50.00
59367;BME280;45163;47.690;11.770;2022-10-31T11:31:23;93526.19;;;20.10;51.17
59367;BME280;45163;47.690;11.770;2022-10-31T11:34:00;93522.34;;;20.28;49.32
59367;BME280;45163;47.690;11.770;2022-10-31T11:36:30;93525.50;;;20.47;50.88
59367;BME280;45163;47.690;11.770;2022-10-31T11:38:58;93522.13;;;20.69;51.41
59367;BME280;45163;47.690;11.770;2022-10-31T11:41:26;93517.16;;;20.79;49.27
59367;BME280;45163;47.690;11.770;2022-10-31T11:43:56;93520.34;;;21.14;50.93
59367;BME280;45163;47.690;11.770;2022-10-31T11:46:37;93519.84;;;21.10;51.38
59367;BME280;45163;47.690;11.770;2022-10-31T11:49:05;93516.22;;;20.93;48.53
59367;BME280;45163;47.690;11.770;2022-10-31T11:51:37;93511.56;;;21.27;48.59
59367;BME280;45163;47.690;11.770;2022-10-31T11:54:04;93502.13;;;21.62;48.21
59367;BME280;45163;47.690;11.770;2022-10-31T11:56:40;93506.75;;;21.99;48.06
59367;BME280;45163;47.690;11.770;2022-10-31T11:59:33;93497.88;;;21.83;47.05
59367;BME280;45163;47.690;11.770;2022-10-31T12:02:00;93500.69;;;22.06;45.74
59367;BME280;45163;47.690;11.770;2022-10-31T12:04:58;93501.72;;;22.25;48.18
59367;BME280;45163;47.690;11.770;2022-10-31T12:07:26;93492.78;;;22.88;48.92
59367;BME280;45163;47.690;11.770;2022-10-31T12:09:52;93483.00;;;22.54;43.89
59367;BME280;45163;47.690;11.770;2022-10-31T12:15:25;93488.66;;;23.23;45.44
59367;BME280;45163;47.690;11.770;2022-10-31T12:26:14;93482.81;;;23.27;44.92
59367;BME280;45163;47.690;11.770;2022-10-31T12:31:41;93473.31;;;22.77;47.79
59367;BME280;45163;47.690;11.770;2022-10-31T12:54:08;93463.53;;;21.98;49.83
59367;BME280;45163;47.690;11.770;2022-10-31T12:58:59;93456.09;;;21.33;54.89
59367;BME280;45163;47.690;11.770;2022-10-31T13:01:32;93453.75;;;21.14;57.30
59367;BME280;45163;47.690;11.770;2022-10-31T13:04:16;93456.72;;;21.00;60.72
59367;BME280;45163;47.690;11.770;2022-10-31T13:06:58;93450.69;;;21.07;61.71
59367;BME280;45163;47.690;11.770;2022-10-31T13:09:32;93446.75;;;21.36;60.97
59367;BME280;45163;47.690;11.770;2022-10-31T13:12:06;93448.63;;;21.84;57.22
59367;BME280;45163;47.690;11.770;2022-10-31T13:14:50;93438.78;;;22.33;53.50
59367;BME280;45163;47.690;11.770;2022-10-31T13:20:13;93438.34;;;24.58;47.00
59367;BME280;45163;47.690;11.770;2022-10-31T13:22:44;93434.19;;;25.14;44.67
59367;BME280;45163;47.690;11.770;2022-10-31T13:25:22;93432.03;;;25.64;43.94
59367;BME280;45163;47.690;11.770;2022-10-31T13:28:12;93429.59;;;25.36;43.08
59367;BME280;45163;47.690;11.770;2022-10-31T13:30:45;93428.47;;;25.82;41.04
59367;BME280;45163;47.690;11.770;2022-10-31T13:33:22;93422.91;;;26.14;40.29
59367;BME280;45163;47.690;11.770;2022-10-31T13:38:57;93419.84;;;25.61;41.57
59367;BME280;45163;47.690;11.770;2022-10-31T13:41:43;93412.75;;;25.22;44.55
59367;BME280;45163;47.690;11.770;2022-10-31T13:46:50;93416.06;;;23.93;47.93
59367;BME280;45163;47.690;11.770;2022-10-31T13:49:43;93400.44;;;24.14;48.90
59367;BME280;45163;47.690;11.770;2022-10-31T13:57:38;93404.75;;;22.80;51.94
59367;BME280;45163;47.690;11.770;2022-10-31T14:02:36;93401.09;;;23.13;54.75
59367;BME280;45163;47.690;11.770;2022-10-31T14:05:21;93396.91;;;22.84;54.81
59367;BME280;45163;47.690;11.770;2022-10-31T14:07:48;93389.13;;;22.66;56.46
59367;BME280;45163;47.690;11.770;2022-10-31T14:10:28;93384.69;;;22.29;56.41
59367;BME280;45163;47.690;11.770;2022-10-31T14:15:30;93394.78;;;21.98;60.88
59367;BME280;45163;47.690;11.770;2022-10-31T14:18:06;93382.69;;;21.62;62.23
59367;BME280;45163;47.690;11.770;2022-10-31T14:20:43;93377.88;;;21.68;62.96
59367;BME280;45163;47.690;11.770;2022-10-31T14:25:54;93385.59;;;21.13;68.14
59367;BME280;45163;47.690;11.770;2022-10-31T14:28:33;93381.84;;;21.22;68.75
59367;BME280;45163;47.690;11.770;2022-10-31T14:31:00;93377.50;;;20.99;70.93
59367;BME280;45163;47.690;11.770;2022-10-31T14:33:28;93383.06;;;20.99;71.72
59367;BME280;45163;47.690;11.770;2022-10-31T14:36:07;93378.16;;;20.71;74.76
59367;BME280;45163;47.690;11.770;2022-10-31T14:52:24;93366.22;;;19.42;89.15
59367;BME280;45163;47.690;11.770;2022-10-31T14:54:53;93372.84;;;19.24;91.72
59367;BME280;45163;47.690;11.770;2022-10-31T14:57:21;93361.41;;;19.11;92.23
59367;BME280;45163;47.690;11.770;2022-10-31T14:59:51;93353.66;;;18.69;95.21
59367;BME280;45163;47.690;11.770;2022-10-31T15:02:31;93363.75;;;18.51;96.36
59367;BME280;45163;47.690;11.770;2022-10-31T15:05:01;93369.59;;;18.18;99.28
59367;BME280;45163;47.690;11.770;2022-10-31T15:07:28;93369.66;;;18.03;99.76
59367;BME280;45163;47.690;11.770;2022-10-31T15:10:03;93369.06;;;17.79;100.00